Merrifield, Minnesota
Current Conditions -  °F | °C
As of 2:53 AM on Sunday 26 Oct 2014 (Local Time) from KBRD Reporting Station
Clear Clear  
Wind Chill: 32°   Ceiling: Unl
Heat Index: 32°   Visibility: 10mi
Dew Point: 27°   Wind: 3mph
Humidity: 82%   Direction: 200°SSW
Pressure: 30.01"   Gusts: NA
Location:  46.46°N, 94.17°W
Report Text: KBRD 260753Z AUTO 20003KT 10SM CLR 00/M03 A3001 RMK AO2 SLP173 T00001028
Loading
Personal Weather Stations






























Interactive Weather Map
Tropical Storm Tracking
New forecast layout! Learn more

10-Day Weather Forecast

Advertisements
Track Severe Weather on mobile